Time;durP1;ratioP1;P1;durP2;ratioP2;P2;SDS_P1;SDS_P2;PMS_P1;PMS_P2;Temp;Humidity;BMP_temperature;BMP_pressure;BME280_temperature;BME280_humidity;BME280_pressure;Samples;Min_cycle;Max_cycle;Signal;HPM_P1;HPM_P2
2022/10/15 00:01:59;;;;;;;67.35;39.53;;;;;;;;;;6171720;28;20113;-77
2022/10/15 00:04:59;;;;;;;68.20;39.45;;;;;;;;;;6172906;28;20395;-77
2022/10/15 00:08:00;;;;;;;76.03;39.97;;;;;;;;;;6172629;28;20417;-77
2022/10/15 00:11:08;;;;;;;72.53;44.27;;;;;;;;;;6173339;28;20098;-75
2022/10/15 00:14:08;;;;;;;79.07;42.78;;;;;;;;;;6167181;28;20588;-75
2022/10/15 00:17:08;;;;;;;78.63;43.97;;;;;;;;;;6166261;28;20135;-75
2022/10/15 00:20:09;;;;;;;81.80;46.75;;;;;;;;;;6167910;28;20333;-76
2022/10/15 00:23:09;;;;;;;88.10;47.72;;;;;;;;;;6169061;28;20035;-76
2022/10/15 00:26:11;;;;;;;80.75;47.25;;;;;;;;;;6154473;28;20030;-76
2022/10/15 00:29:11;;;;;;;89.65;50.53;;;;;;;;;;6171417;28;20285;-76
2022/10/15 00:32:12;;;;;;;86.18;48.58;;;;;;;;;;6171306;28;20046;-76
2022/10/15 00:35:12;;;;;;;88.10;48.60;;;;;;;;;;6165953;28;20383;-76
2022/10/15 00:38:12;;;;;;;89.63;48.97;;;;;;;;;;6171826;28;20061;-76
2022/10/15 00:41:15;;;;;;;75.32;44.42;;;;;;;;;;6170727;28;20277;-75
2022/10/15 00:44:25;;;;;;;82.65;46.63;;;;;;;;;;6171028;28;20047;-75
2022/10/15 00:47:26;;;;;;;81.57;44.03;;;;;;;;;;6169485;28;20113;-75
2022/10/15 00:50:27;;;;;;;84.03;46.67;;;;;;;;;;6172160;28;20050;-76
2022/10/15 00:53:27;;;;;;;79.93;43.10;;;;;;;;;;6166294;28;20053;-76
2022/10/15 00:56:29;;;;;;;90.53;48.63;;;;;;;;;;6171822;28;20251;-75
2022/10/15 00:59:30;;;;;;;83.63;46.15;;;;;;;;;;6172178;28;20479;-75
2022/10/15 01:02:31;;;;;;;73.47;46.20;;;;;;;;;;6151948;28;20015;-76
2022/10/15 01:05:32;;;;;;;77.60;43.85;;;;;;;;;;6171126;28;20042;-75
2022/10/15 01:08:33;;;;;;;75.07;45.20;;;;;;;;;;6173386;28;20022;-75
2022/10/15 01:11:36;;;;;;;81.47;45.00;;;;;;;;;;6168822;28;20015;-75
2022/10/15 01:14:39;;;;;;;84.10;46.28;;;;;;;;;;6175652;28;20011;-75
2022/10/15 01:17:43;;;;;;;83.57;49.28;;;;;;;;;;6175153;28;20502;-75
2022/10/15 01:20:50;;;;;;;76.32;43.00;;;;;;;;;;6170447;28;20490;-75
2022/10/15 01:24:09;;;;;;;78.03;44.05;;;;;;;;;;6175118;28;20019;-76
2022/10/15 01:27:22;;;;;;;77.40;44.05;;;;;;;;;;6175240;28;20018;-76
2022/10/15 01:30:23;;;;;;;80.25;47.50;;;;;;;;;;6170294;28;20426;-76
2022/10/15 01:33:26;;;;;;;77.05;40.83;;;;;;;;;;6174963;28;20017;-76
2022/10/15 01:36:38;;;;;;;81.72;42.42;;;;;;;;;;6156185;28;20048;-76
2022/10/15 01:39:40;;;;;;;77.55;44.13;;;;;;;;;;6174920;28;20110;-76
2022/10/15 01:42:50;;;;;;;74.07;42.40;;;;;;;;;;6173545;28;20090;-76
2022/10/15 01:45:56;;;;;;;75.68;41.95;;;;;;;;;;6171465;28;20674;-77
2022/10/15 01:48:57;;;;;;;72.72;40.38;;;;;;;;;;6174861;28;20027;-76
2022/10/15 01:51:57;;;;;;;78.55;44.30;;;;;;;;;;6172997;28;20015;-76
2022/10/15 01:54:59;;;;;;;74.95;41.28;;;;;;;;;;6169317;28;20019;-76
2022/10/15 01:57:59;;;;;;;73.10;40.45;;;;;;;;;;6174979;28;20540;-75
2022/10/15 02:00:59;;;;;;;69.13;40.60;;;;;;;;;;6175489;28;20026;-76
2022/10/15 02:03:59;;;;;;;82.23;38.37;;;;;;;;;;6175569;28;20043;-76
2022/10/15 02:07:08;;;;;;;71.85;39.42;;;;;;;;;;6179308;28;20605;-76
2022/10/15 02:10:22;;;;;;;74.47;41.00;;;;;;;;;;6155199;28;20368;-77
2022/10/15 02:13:24;;;;;;;77.70;42.92;;;;;;;;;;6173172;28;20049;-76
2022/10/15 02:16:25;;;;;;;;;;;;;;;;;;6157065;28;20050;-76
2022/10/15 02:19:30;;;;;;;81.00;41.20;;;;;;;;;;6174292;28;19910;-76
2022/10/15 02:22:50;;;;;;;71.82;38.47;;;;;;;;;;6156649;28;20101;-76
2022/10/15 02:25:52;;;;;;;76.75;37.58;;;;;;;;;;6166996;28;20023;-76
2022/10/15 02:28:54;;;;;;;69.43;38.42;;;;;;;;;;6158936;28;20031;-76
2022/10/15 02:31:55;;;;;;;73.78;39.35;;;;;;;;;;6167622;28;20463;-76
2022/10/15 02:34:56;;;;;;;74.80;40.72;;;;;;;;;;6173904;28;20015;-76
2022/10/15 02:37:58;;;;;;;61.63;36.53;;;;;;;;;;6169366;28;20034;-76
2022/10/15 02:40:58;;;;;;;;;;;;;;;;;;6173487;28;20335;-76
2022/10/15 02:43:58;;;;;;;68.95;34.25;;;;;;;;;;6155780;28;19910;-77
2022/10/15 02:46:58;;;;;;;63.92;33.03;;;;;;;;;;6168744;28;20103;-76
2022/10/15 02:49:59;;;;;;;58.73;32.67;;;;;;;;;;6156032;28;20018;-76
2022/10/15 02:52:59;;;;;;;63.22;36.30;;;;;;;;;;6171955;28;20362;-76
2022/10/15 02:55:59;;;;;;;65.80;35.60;;;;;;;;;;6173594;28;20019;-76
2022/10/15 02:59:00;;;;;;;63.88;37.28;;;;;;;;;;6171121;28;20118;-76
2022/10/15 03:02:00;;;;;;;68.60;36.80;;;;;;;;;;6173152;28;20471;-76
2022/10/15 03:05:00;;;;;;;66.80;36.17;;;;;;;;;;6174221;28;20022;-75
2022/10/15 03:08:00;;;;;;;73.22;37.38;;;;;;;;;;6174507;28;20621;-76
2022/10/15 03:11:01;;;;;;;61.65;32.47;;;;;;;;;;6155886;28;20357;-76
2022/10/15 03:14:01;;;;;;;63.40;34.35;;;;;;;;;;6172490;28;20517;-76
2022/10/15 03:17:01;;;;;;;63.78;34.83;;;;;;;;;;6172353;28;20018;-76
2022/10/15 03:20:01;;;;;;;60.75;34.22;;;;;;;;;;6171704;28;20062;-76
2022/10/15 03:23:01;;;;;;;64.50;33.07;;;;;;;;;;6171978;28;20266;-76
2022/10/15 03:26:02;;;;;;;48.17;26.90;;;;;;;;;;6173134;28;20254;-76
2022/10/15 03:29:02;;;;;;;60.50;34.28;;;;;;;;;;6172637;28;20026;-76
2022/10/15 03:32:03;;;;;;;60.97;32.65;;;;;;;;;;6171974;28;20015;-76
2022/10/15 03:35:04;;;;;;;57.85;35.25;;;;;;;;;;6172852;28;20021;-76
2022/10/15 03:38:05;;;;;;;63.83;33.72;;;;;;;;;;6172887;28;20027;-76
2022/10/15 03:41:05;;;;;;;59.87;32.63;;;;;;;;;;6172404;28;20446;-76
2022/10/15 03:44:06;;;;;;;56.42;32.10;;;;;;;;;;6172426;28;20054;-76
2022/10/15 03:47:06;;;;;;;56.42;29.15;;;;;;;;;;6166908;28;20069;-76
2022/10/15 03:50:07;;;;;;;57.87;32.13;;;;;;;;;;6172939;28;20033;-76
2022/10/15 03:53:07;;;;;;;62.58;32.25;;;;;;;;;;6171546;28;20459;-76
2022/10/15 03:56:07;;;;;;;58.43;31.73;;;;;;;;;;6155289;28;20053;-76
2022/10/15 03:59:07;;;;;;;59.37;32.00;;;;;;;;;;6169328;28;20390;-77
2022/10/15 04:02:08;;;;;;;60.73;31.40;;;;;;;;;;6167711;28;20277;-76
2022/10/15 04:05:08;;;;;;;58.63;31.37;;;;;;;;;;6168322;28;20023;-76
2022/10/15 04:08:08;;;;;;;67.93;34.55;;;;;;;;;;6172561;28;20077;-76
2022/10/15 04:11:08;;;;;;;60.92;32.40;;;;;;;;;;6154007;28;20019;-76
2022/10/15 04:14:08;;;;;;;57.58;31.15;;;;;;;;;;6171207;28;20034;-76
2022/10/15 04:17:09;;;;;;;62.67;31.27;;;;;;;;;;6167702;28;20277;-76
2022/10/15 04:20:09;;;;;;;55.63;32.00;;;;;;;;;;6172044;28;20018;-76
2022/10/15 04:23:09;;;;;;;55.47;30.02;;;;;;;;;;6168393;28;20105;-76
2022/10/15 04:26:09;;;;;;;50.27;27.33;;;;;;;;;;6169321;28;20015;-76
2022/10/15 04:29:10;;;;;;;51.80;29.65;;;;;;;;;;6171453;28;20800;-76
2022/10/15 04:32:13;;;;;;;59.07;29.27;;;;;;;;;;6171138;28;20023;-76
2022/10/15 04:35:13;;;;;;;53.28;28.23;;;;;;;;;;6152365;28;20045;-76
2022/10/15 04:38:13;;;;;;;53.13;28.90;;;;;;;;;;6171479;28;20479;-75
2022/10/15 04:41:13;;;;;;;58.28;29.88;;;;;;;;;;6170653;28;20650;-76
2022/10/15 04:44:14;;;;;;;58.47;28.93;;;;;;;;;;6172027;28;20043;-76
2022/10/15 04:47:14;;;;;;;51.15;28.30;;;;;;;;;;6176811;28;20121;-76
2022/10/15 04:50:14;;;;;;;54.45;27.95;;;;;;;;;;6175753;28;20022;-75
2022/10/15 04:53:15;;;;;;;44.25;25.15;;;;;;;;;;6175299;28;20451;-76
2022/10/15 04:56:16;;;;;;;43.00;26.38;;;;;;;;;;6158973;28;20015;-76
2022/10/15 04:59:17;;;;;;;;;;;;;;;;;;6172555;28;20089;-76
2022/10/15 05:02:17;;;;;;;43.97;25.63;;;;;;;;;;6178546;28;19910;-76
2022/10/15 05:05:17;;;;;;;43.00;25.38;;;;;;;;;;6178151;28;20022;-76
2022/10/15 05:08:17;;;;;;;43.97;23.35;;;;;;;;;;6175880;28;20023;-76
2022/10/15 05:11:22;;;;;;;53.90;27.08;;;;;;;;;;6175588;28;20266;-75
2022/10/15 05:14:22;;;;;;;41.88;24.13;;;;;;;;;;6174807;28;20098;-75
2022/10/15 05:17:22;;;;;;;43.40;26.52;;;;;;;;;;6176100;28;20031;-75
2022/10/15 05:20:22;;;;;;;47.13;23.77;;;;;;;;;;6175846;28;20030;-75
2022/10/15 05:23:22;;;;;;;47.30;23.13;;;;;;;;;;6174545;28;20042;-75
2022/10/15 05:26:24;;;;;;;43.45;24.67;;;;;;;;;;6174534;28;20481;-76
2022/10/15 05:29:24;;;;;;;43.63;23.88;;;;;;;;;;6172182;28;20282;-76
2022/10/15 05:32:24;;;;;;;43.20;24.13;;;;;;;;;;6170833;28;20015;-75
2022/10/15 05:35:24;;;;;;;41.17;23.40;;;;;;;;;;6173028;28;20031;-75
2022/10/15 05:38:25;;;;;;;37.95;23.38;;;;;;;;;;6175367;28;20502;-76
2022/10/15 05:41:25;;;;;;;36.75;23.15;;;;;;;;;;6176927;28;20023;-75
2022/10/15 05:44:26;;;;;;;38.73;24.50;;;;;;;;;;6175006;28;20035;-76
2022/10/15 05:47:26;;;;;;;33.47;21.23;;;;;;;;;;6172329;28;20534;-76
2022/10/15 05:50:26;;;;;;;35.97;21.67;;;;;;;;;;6163122;28;20034;-75
2022/10/15 05:53:26;;;;;;;32.28;21.05;;;;;;;;;;6170838;28;20381;-76
2022/10/15 05:56:26;;;;;;;36.93;20.43;;;;;;;;;;6173483;28;20025;-76
2022/10/15 05:59:27;;;;;;;29.77;21.20;;;;;;;;;;6168397;28;20082;-76
2022/10/15 06:02:27;;;;;;;33.65;21.83;;;;;;;;;;6165902;28;20035;-76
2022/10/15 06:05:27;;;;;;;33.20;21.13;;;;;;;;;;6172826;28;20537;-76
2022/10/15 06:08:28;;;;;;;35.67;20.50;;;;;;;;;;6173766;28;20101;-75
2022/10/15 06:11:28;;;;;;;38.22;21.13;;;;;;;;;;6169434;28;20011;-76
2022/10/15 06:14:29;;;;;;;32.37;20.37;;;;;;;;;;6172508;28;20034;-76
2022/10/15 06:17:29;;;;;;;35.58;20.95;;;;;;;;;;6174241;28;20015;-76
2022/10/15 06:20:29;;;;;;;35.55;21.35;;;;;;;;;;6170095;28;20296;-75
2022/10/15 06:23:29;;;;;;;31.25;20.30;;;;;;;;;;6170573;28;20023;-75
2022/10/15 06:26:29;;;;;;;41.23;24.53;;;;;;;;;;6174285;28;20102;-75
2022/10/15 06:29:29;;;;;;;36.58;20.73;;;;;;;;;;6172753;28;20022;-76
2022/10/15 06:32:30;;;;;;;35.58;21.45;;;;;;;;;;6171683;28;20089;-77
2022/10/15 06:35:32;;;;;;;45.13;25.67;;;;;;;;;;6173382;28;20022;-76
2022/10/15 06:38:33;;;;;;;40.58;26.45;;;;;;;;;;6151614;28;20031;-77
2022/10/15 06:41:33;;;;;;;40.97;24.83;;;;;;;;;;6165827;28;20029;-76
2022/10/15 06:44:33;;;;;;;42.53;23.40;;;;;;;;;;6170043;28;20043;-76
2022/10/15 06:47:33;;;;;;;57.67;34.67;;;;;;;;;;6172217;28;20098;-76
2022/10/15 06:50:35;;;;;;;63.10;34.40;;;;;;;;;;6171300;28;20029;-76
2022/10/15 06:53:35;;;;;;;57.60;31.27;;;;;;;;;;6172161;28;20015;-76
2022/10/15 06:56:35;;;;;;;45.17;24.20;;;;;;;;;;6174532;28;20364;-76
2022/10/15 06:59:35;;;;;;;34.60;22.77;;;;;;;;;;6171153;28;20015;-76
2022/10/15 07:02:35;;;;;;;35.03;22.42;;;;;;;;;;6162286;28;20015;-76
2022/10/15 07:05:36;;;;;;;33.58;22.60;;;;;;;;;;6153626;28;20109;-77
2022/10/15 07:08:36;;;;;;;30.80;19.83;;;;;;;;;;6168376;28;20490;-77
2022/10/15 07:11:36;;;;;;;32.67;22.37;;;;;;;;;;6171303;28;20019;-76
2022/10/15 07:14:36;;;;;;;32.42;19.77;;;;;;;;;;6171814;28;20019;-76
2022/10/15 07:17:38;;;;;;;31.80;20.45;;;;;;;;;;6173141;28;20179;-76
2022/10/15 07:20:38;;;;;;;37.92;21.05;;;;;;;;;;6172486;28;20019;-76
2022/10/15 07:23:38;;;;;;;28.02;19.17;;;;;;;;;;6171701;28;20073;-75
2022/10/15 07:26:38;;;;;;;26.48;17.30;;;;;;;;;;6155017;28;20121;-75
2022/10/15 07:29:38;;;;;;;27.58;18.25;;;;;;;;;;6171700;28;20027;-76
2022/10/15 07:32:39;;;;;;;30.20;18.73;;;;;;;;;;6172117;28;20014;-76
2022/10/15 07:35:39;;;;;;;30.70;18.80;;;;;;;;;;6172977;28;20101;-76
2022/10/15 07:38:39;;;;;;;27.93;17.67;;;;;;;;;;6171962;28;20014;-76
2022/10/15 07:41:39;;;;;;;27.97;17.07;;;;;;;;;;6167553;28;20011;-76
2022/10/15 07:44:39;;;;;;;30.23;17.05;;;;;;;;;;6174262;28;20039;-76
2022/10/15 07:47:40;;;;;;;27.38;17.15;;;;;;;;;;6167416;28;20098;-76
2022/10/15 07:50:41;;;;;;;31.58;17.92;;;;;;;;;;6158176;28;20019;-76
2022/10/15 07:53:42;;;;;;;26.43;16.50;;;;;;;;;;6162330;28;20073;-75
2022/10/15 07:56:42;;;;;;;;;;;;;;;;;;6155176;28;20014;-75
2022/10/15 07:59:43;;;;;;;23.02;16.63;;;;;;;;;;6157433;28;19909;-75
2022/10/15 08:02:44;;;;;;;23.07;16.30;;;;;;;;;;6156990;28;20027;-75
2022/10/15 08:05:44;;;;;;;24.17;17.15;;;;;;;;;;6162115;28;20565;-75
2022/10/15 08:08:44;;;;;;;25.90;15.70;;;;;;;;;;6159783;28;20027;-75
2022/10/15 08:11:44;;;;;;;25.67;16.48;;;;;;;;;;6167537;28;20023;-75
2022/10/15 08:14:45;;;;;;;29.77;16.83;;;;;;;;;;6170497;28;20510;-75
2022/10/15 08:17:45;;;;;;;25.48;17.27;;;;;;;;;;6173334;28;20070;-74
2022/10/15 08:20:46;;;;;;;26.27;17.53;;;;;;;;;;6171630;28;20046;-75
2022/10/15 08:23:46;;;;;;;25.80;17.47;;;;;;;;;;6176348;28;20471;-75
2022/10/15 08:26:46;;;;;;;25.90;16.80;;;;;;;;;;6175947;28;20034;-75
2022/10/15 08:29:47;;;;;;;21.80;15.93;;;;;;;;;;6174119;28;20023;-75
2022/10/15 08:32:47;;;;;;;33.28;17.25;;;;;;;;;;6176733;28;20018;-75
2022/10/15 08:35:47;;;;;;;22.87;17.37;;;;;;;;;;6174951;28;20093;-75
2022/10/15 08:38:47;;;;;;;24.07;16.10;;;;;;;;;;6177653;28;20110;-75
2022/10/15 08:41:51;;;;;;;25.33;16.67;;;;;;;;;;6176883;28;20027;-75
2022/10/15 08:44:57;;;;;;;23.70;16.60;;;;;;;;;;6156161;28;20043;-76
2022/10/15 08:48:03;;;;;;;24.90;17.33;;;;;;;;;;6173789;28;20027;-74
2022/10/15 08:51:11;;;;;;;30.65;19.20;;;;;;;;;;6176507;28;20019;-74
2022/10/15 08:54:14;;;;;;;26.92;17.60;;;;;;;;;;6169111;28;20026;-74
2022/10/15 08:57:34;;;;;;;24.00;16.38;;;;;;;;;;6174467;28;20106;-74
2022/10/15 09:00:37;;;;;;;23.00;15.88;;;;;;;;;;6165442;28;20145;-76
2022/10/15 09:03:37;;;;;;;23.63;16.15;;;;;;;;;;6174401;28;20498;-75
2022/10/15 09:06:38;;;;;;;26.83;16.42;;;;;;;;;;6174654;28;20015;-75
2022/10/15 09:09:50;;;;;;;28.57;17.17;;;;;;;;;;6180253;28;20411;-75
2022/10/15 09:12:56;;;;;;;25.35;14.93;;;;;;;;;;6172928;28;20026;-75
2022/10/15 09:16:16;;;;;;;24.30;15.27;;;;;;;;;;6154189;28;20019;-74
2022/10/15 09:19:18;;;;;;;25.13;14.70;;;;;;;;;;6164701;28;20042;-74
2022/10/15 09:22:22;;;;;;;21.65;14.52;;;;;;;;;;6168783;28;20023;-75
2022/10/15 09:25:24;;;;;;;23.05;14.57;;;;;;;;;;6173649;28;20114;-75
2022/10/15 09:28:27;;;;;;;24.35;16.60;;;;;;;;;;6171426;28;20379;-75
2022/10/15 09:31:39;;;;;;;27.50;15.93;;;;;;;;;;6164827;28;20023;-76
2022/10/15 09:34:45;;;;;;;26.00;16.20;;;;;;;;;;6170190;28;20019;-76
2022/10/15 09:38:03;;;;;;;23.98;16.08;;;;;;;;;;6172410;28;20034;-76
2022/10/15 09:41:16;;;;;;;25.13;16.40;;;;;;;;;;6175521;28;20019;-75
2022/10/15 09:44:17;;;;;;;21.30;15.27;;;;;;;;;;6170550;28;20027;-75
2022/10/15 09:47:23;;;;;;;22.05;14.75;;;;;;;;;;6175056;28;20419;-76
2022/10/15 09:50:24;;;;;;;60.42;33.88;;;;;;;;;;6170833;28;20423;-75
2022/10/15 09:53:39;;;;;;;52.05;30.10;;;;;;;;;;6160373;28;20549;-75
2022/10/15 09:56:47;;;;;;;40.15;25.63;;;;;;;;;;6172578;28;20026;-75
2022/10/15 10:00:00;;;;;;;22.30;14.32;;;;;;;;;;6160834;28;20026;-75
2022/10/15 10:03:08;;;;;;;21.65;11.95;;;;;;;;;;6168868;28;20073;-75
2022/10/15 10:06:09;;;;;;;20.92;12.13;;;;;;;;;;6167100;28;20577;-76
2022/10/15 10:09:09;;;;;;;;;;;;;;;;;;6149959;28;20069;-75
2022/10/15 10:12:17;;;;;;;22.98;11.50;;;;;;;;;;6170054;28;19910;-76
2022/10/15 10:15:20;;;;;;;18.90;11.68;;;;;;;;;;6171948;28;20088;-75
2022/10/15 10:18:24;;;;;;;20.05;12.32;;;;;;;;;;6171835;28;20026;-75
2022/10/15 10:21:29;;;;;;;15.30;11.00;;;;;;;;;;6163978;28;20026;-75
2022/10/15 10:24:33;;;;;;;16.70;10.27;;;;;;;;;;6161500;28;20031;-76
2022/10/15 10:27:33;;;;;;;21.52;11.48;;;;;;;;;;6166809;28;20018;-75
2022/10/15 10:30:56;;;;;;;14.93;10.43;;;;;;;;;;6162497;28;20023;-75
2022/10/15 10:33:59;;;;;;;17.80;10.88;;;;;;;;;;6168675;28;20217;-75
2022/10/15 10:37:03;;;;;;;15.40;10.15;;;;;;;;;;6170726;28;20371;-75
2022/10/15 10:40:03;;;;;;;17.40;10.13;;;;;;;;;;6171718;28;20551;-75
2022/10/15 10:43:17;;;;;;;21.73;8.77;;;;;;;;;;6171231;28;20054;-75
2022/10/15 10:46:19;;;;;;;16.25;8.77;;;;;;;;;;6165135;28;20054;-75
2022/10/15 10:49:29;;;;;;;17.35;10.15;;;;;;;;;;6170269;28;20383;-75
2022/10/15 10:52:34;;;;;;;16.40;8.82;;;;;;;;;;6171726;28;20030;-75
2022/10/15 10:55:37;;;;;;;15.23;9.75;;;;;;;;;;6156299;28;20105;-75
2022/10/15 10:58:37;;;;;;;17.15;10.10;;;;;;;;;;6172498;28;20023;-75
2022/10/15 11:01:38;;;;;;;18.83;9.60;;;;;;;;;;6169796;28;20252;-75
2022/10/15 11:04:38;;;;;;;13.80;9.27;;;;;;;;;;6171404;28;20035;-75
2022/10/15 11:07:49;;;;;;;14.30;8.40;;;;;;;;;;6170084;28;20023;-75
2022/10/15 11:10:58;;;;;;;16.20;8.15;;;;;;;;;;6168469;28;20035;-75
2022/10/15 11:13:58;;;;;;;13.63;7.90;;;;;;;;;;6171979;28;20023;-75
2022/10/15 11:17:01;;;;;;;11.83;7.30;;;;;;;;;;6172566;28;20545;-76
2022/10/15 11:20:07;;;;;;;12.98;6.78;;;;;;;;;;6155134;28;20082;-75
2022/10/15 11:23:11;;;;;;;13.23;7.65;;;;;;;;;;6164861;28;20431;-75
2022/10/15 11:26:29;;;;;;;13.68;6.90;;;;;;;;;;6171955;28;20096;-75
2022/10/15 11:29:35;;;;;;;10.55;7.35;;;;;;;;;;6163182;28;20027;-75
2022/10/15 11:32:44;;;;;;;12.15;6.85;;;;;;;;;;6169403;28;20535;-76
2022/10/15 11:35:47;;;;;;;14.93;7.28;;;;;;;;;;6166264;28;20038;-76
2022/10/15 11:38:47;;;;;;;11.43;6.75;;;;;;;;;;6159402;28;20113;-75
2022/10/15 11:42:17;;;;;;;13.63;7.63;;;;;;;;;;6163386;28;20041;-75
2022/10/15 11:45:26;;;;;;;12.85;7.00;;;;;;;;;;6156553;28;20574;-75
2022/10/15 11:48:26;;;;;;;12.70;6.63;;;;;;;;;;6179253;28;20046;-75
2022/10/15 11:51:46;;;;;;;11.53;7.60;;;;;;;;;;6165355;28;20478;-75
2022/10/15 11:55:16;;;;;;;11.93;6.50;;;;;;;;;;6164624;28;20035;-75
2022/10/15 11:58:22;;;;;;;13.35;7.88;;;;;;;;;;6154103;28;20070;-75
2022/10/15 12:01:29;;;;;;;13.55;6.80;;;;;;;;;;6167257;28;20118;-76
2022/10/15 12:04:35;;;;;;;14.38;6.82;;;;;;;;;;6169285;28;20041;-76
2022/10/15 12:07:40;;;;;;;15.07;7.80;;;;;;;;;;6168243;28;20467;-74
2022/10/15 12:10:52;;;;;;;12.07;7.10;;;;;;;;;;6170254;28;20054;-75
2022/10/15 12:14:15;;;;;;;12.80;7.53;;;;;;;;;;6163856;28;20047;-75
2022/10/15 12:17:19;;;;;;;14.07;7.60;;;;;;;;;;6160166;28;20038;-75
2022/10/15 12:20:20;;;;;;;15.10;7.82;;;;;;;;;;6148982;28;20024;-75
2022/10/15 12:23:22;;;;;;;12.98;6.85;;;;;;;;;;6157464;28;20015;-76
2022/10/15 12:26:22;;;;;;;12.85;6.85;;;;;;;;;;6164639;28;20041;-76
2022/10/15 12:29:25;;;;;;;13.77;7.47;;;;;;;;;;6169836;28;20052;-75
2022/10/15 12:32:26;;;;;;;13.02;7.22;;;;;;;;;;6170377;28;20490;-76
2022/10/15 12:35:26;;;;;;;;;;;;;;;;;;6164404;28;20121;-75
2022/10/15 12:38:27;;;;;;;11.82;7.60;;;;;;;;;;6167621;28;20015;-76
2022/10/15 12:41:40;;;;;;;11.65;7.72;;;;;;;;;;6161971;28;20038;-75
2022/10/15 12:44:47;;;;;;;12.43;7.32;;;;;;;;;;6161609;28;20409;-75
2022/10/15 12:47:49;;;;;;;15.98;8.93;;;;;;;;;;6156997;28;20086;-75
2022/10/15 12:51:09;;;;;;;16.55;8.35;;;;;;;;;;6158956;28;20034;-76
2022/10/15 12:54:28;;;;;;;12.85;7.45;;;;;;;;;;6161494;28;20090;-75
2022/10/15 12:57:33;;;;;;;11.63;6.38;;;;;;;;;;6168000;28;20045;-75
2022/10/15 13:00:35;;;;;;;14.98;8.00;;;;;;;;;;6168307;28;20026;-75
2022/10/15 13:03:35;;;;;;;;;;;;;;;;;;6169609;28;20026;-75
2022/10/15 13:06:37;;;;;;;16.23;8.98;;;;;;;;;;6175306;28;19906;-75
2022/10/15 13:09:37;;;;;;;16.92;8.05;;;;;;;;;;6161909;28;20031;-75
2022/10/15 13:12:38;;;;;;;14.33;8.93;;;;;;;;;;6169827;28;20391;-75
2022/10/15 13:15:38;;;;;;;15.70;8.70;;;;;;;;;;6154596;28;20023;-75
2022/10/15 13:18:40;;;;;;;16.73;7.70;;;;;;;;;;6159267;28;20019;-75
2022/10/15 13:21:47;;;;;;;15.18;7.68;;;;;;;;;;6162752;28;20451;-75
2022/10/15 13:24:47;;;;;;;14.60;8.43;;;;;;;;;;6171626;28;20414;-75
2022/10/15 13:27:47;;;;;;;16.33;9.30;;;;;;;;;;6163985;28;20035;-75
2022/10/15 13:30:48;;;;;;;14.32;8.15;;;;;;;;;;6161994;28;20030;-75
2022/10/15 13:33:50;;;;;;;13.33;6.83;;;;;;;;;;6143376;28;20111;-75
2022/10/15 13:36:51;;;;;;;14.73;7.13;;;;;;;;;;6168737;28;20081;-75
2022/10/15 13:39:52;;;;;;;15.43;7.15;;;;;;;;;;6168693;28;20495;-75
2022/10/15 13:42:59;;;;;;;14.03;7.20;;;;;;;;;;6160857;28;20044;-75
2022/10/15 13:46:00;;;;;;;14.30;6.97;;;;;;;;;;6159836;28;20540;-75
2022/10/15 13:49:02;;;;;;;11.37;6.83;;;;;;;;;;6160643;28;20027;-75
2022/10/15 13:52:03;;;;;;;14.98;7.93;;;;;;;;;;6158816;28;20143;-75
2022/10/15 13:55:03;;;;;;;13.20;8.40;;;;;;;;;;6162201;28;20011;-75
2022/10/15 13:58:12;;;;;;;18.90;10.23;;;;;;;;;;6172870;28;20403;-75
2022/10/15 14:01:14;;;;;;;19.60;11.15;;;;;;;;;;6171516;28;20498;-75
2022/10/15 14:04:15;;;;;;;100.30;53.97;;;;;;;;;;6170604;28;20033;-75
2022/10/15 14:07:27;;;;;;;44.92;25.00;;;;;;;;;;6168685;28;20022;-75
2022/10/15 14:10:27;;;;;;;31.50;19.73;;;;;;;;;;6171347;28;20026;-76
2022/10/15 14:13:28;;;;;;;27.03;14.77;;;;;;;;;;6170485;28;20037;-75
2022/10/15 14:16:38;;;;;;;19.63;11.60;;;;;;;;;;6171728;28;20030;-75
2022/10/15 14:19:38;;;;;;;19.27;10.63;;;;;;;;;;6168314;28;20050;-75
2022/10/15 14:22:38;;;;;;;20.47;11.70;;;;;;;;;;6171208;28;20390;-75
2022/10/15 14:25:39;;;;;;;20.13;9.93;;;;;;;;;;6173696;28;20235;-76
2022/10/15 14:28:40;;;;;;;18.47;11.13;;;;;;;;;;6173881;28;20031;-75
2022/10/15 14:31:44;;;;;;;20.30;9.38;;;;;;;;;;6173895;28;20027;-75
2022/10/15 14:34:44;;;;;;;15.25;10.25;;;;;;;;;;6172642;28;20053;-75
2022/10/15 14:37:44;;;;;;;17.43;10.57;;;;;;;;;;6170576;28;20082;-75
2022/10/15 14:41:02;;;;;;;14.93;9.60;;;;;;;;;;6172690;28;20046;-76
2022/10/15 14:44:02;;;;;;;18.38;9.82;;;;;;;;;;6166280;28;20437;-76
2022/10/15 14:47:02;;;;;;;21.70;10.80;;;;;;;;;;6158852;28;20038;-75
2022/10/15 14:50:04;;;;;;;20.42;9.00;;;;;;;;;;6150176;28;20030;-75
2022/10/15 14:53:04;;;;;;;;;;;;;;;;;;6160525;28;20015;-75
2022/10/15 14:56:15;;;;;;;20.15;11.23;;;;;;;;;;6155366;28;20000;-77
2022/10/15 14:59:17;;;;;;;21.73;12.63;;;;;;;;;;6161951;28;20045;-75
2022/10/15 15:02:17;;;;;;;32.20;16.55;;;;;;;;;;6169571;28;20045;-78
2022/10/15 15:05:19;;;;;;;20.27;11.80;;;;;;;;;;6171704;28;20470;-75
2022/10/15 15:08:20;;;;;;;22.25;11.88;;;;;;;;;;6172463;28;20471;-75
2022/10/15 15:11:22;;;;;;;21.13;11.32;;;;;;;;;;6162701;28;20046;-76
2022/10/15 15:14:24;;;;;;;25.40;14.43;;;;;;;;;;6167047;28;20578;-76
2022/10/15 15:17:26;;;;;;;21.40;11.88;;;;;;;;;;6173288;28;20019;-76
2022/10/15 15:20:26;;;;;;;23.98;12.30;;;;;;;;;;6172667;28;20033;-76
2022/10/15 15:23:26;;;;;;;20.23;11.80;;;;;;;;;;6172015;28;20031;-75
2022/10/15 15:26:26;;;;;;;22.47;12.10;;;;;;;;;;6168732;28;20097;-75
2022/10/15 15:29:27;;;;;;;21.10;13.43;;;;;;;;;;6165320;28;20022;-76
2022/10/15 15:32:28;;;;;;;27.58;14.98;;;;;;;;;;6172268;28;20027;-75
2022/10/15 15:35:54;;;;;;;26.00;16.05;;;;;;;;;;6174124;28;20019;-76
2022/10/15 15:38:57;;;;;;;39.05;23.48;;;;;;;;;;6157829;28;20050;-75
2022/10/15 15:41:57;;;;;;;47.03;25.33;;;;;;;;;;6162002;28;20027;-75
2022/10/15 15:44:57;;;;;;;48.20;25.60;;;;;;;;;;6141345;28;20047;-75
2022/10/15 15:48:02;;;;;;;34.67;19.73;;;;;;;;;;6154947;28;20142;-75
2022/10/15 15:51:09;;;;;;;31.23;19.48;;;;;;;;;;6157145;28;20034;-75
2022/10/15 15:54:09;;;;;;;62.50;37.17;;;;;;;;;;6151696;28;20483;-75
2022/10/15 15:57:09;;;;;;;57.23;34.07;;;;;;;;;;6162043;28;20019;-75
2022/10/15 16:00:10;;;;;;;62.23;34.87;;;;;;;;;;6158160;28;20508;-75
2022/10/15 16:03:12;;;;;;;81.80;43.63;;;;;;;;;;6159245;28;20510;-75
2022/10/15 16:06:12;;;;;;;90.88;52.38;;;;;;;;;;6160969;28;20089;-75
2022/10/15 16:09:13;;;;;;;72.40;40.47;;;;;;;;;;6156812;28;20464;-76
2022/10/15 16:12:14;;;;;;;66.80;41.10;;;;;;;;;;6165068;28;20029;-76
2022/10/15 16:15:14;;;;;;;103.07;60.17;;;;;;;;;;6151318;28;20395;-76
2022/10/15 16:18:14;;;;;;;117.00;67.73;;;;;;;;;;6160658;28;20019;-76
2022/10/15 16:21:21;;;;;;;134.97;74.17;;;;;;;;;;6159606;28;20058;-76
2022/10/15 16:24:21;;;;;;;120.82;71.72;;;;;;;;;;6168461;28;20026;-75
2022/10/15 16:27:22;;;;;;;92.67;56.17;;;;;;;;;;6168522;28;20027;-76
2022/10/15 16:30:22;;;;;;;74.17;45.73;;;;;;;;;;6167980;28;20437;-76
2022/10/15 16:33:22;;;;;;;86.32;48.72;;;;;;;;;;6168064;28;20098;-76
2022/10/15 16:36:22;;;;;;;100.33;49.63;;;;;;;;;;6162447;28;20026;-75
2022/10/15 16:39:22;;;;;;;91.73;51.27;;;;;;;;;;6168134;28;20077;-75
2022/10/15 16:42:23;;;;;;;89.90;49.20;;;;;;;;;;6162920;28;20025;-75
2022/10/15 16:45:23;;;;;;;88.43;49.17;;;;;;;;;;6175713;28;20049;-75
2022/10/15 16:48:24;;;;;;;82.77;42.90;;;;;;;;;;6169270;28;20031;-75
2022/10/15 16:51:25;;;;;;;71.90;38.80;;;;;;;;;;6166107;28;20034;-75
2022/10/15 16:54:25;;;;;;;69.20;42.10;;;;;;;;;;6169790;28;20015;-75
2022/10/15 16:57:25;;;;;;;71.82;40.00;;;;;;;;;;6171365;28;20487;-75
2022/10/15 17:00:26;;;;;;;75.27;44.73;;;;;;;;;;6174567;28;20019;-75
2022/10/15 17:03:28;;;;;;;85.33;51.10;;;;;;;;;;6174909;28;20022;-75
2022/10/15 17:06:29;;;;;;;72.43;44.42;;;;;;;;;;6173994;28;20027;-75
2022/10/15 17:09:29;;;;;;;72.53;41.07;;;;;;;;;;6176154;28;20106;-75
2022/10/15 17:12:30;;;;;;;77.73;47.80;;;;;;;;;;6172990;28;20270;-76
2022/10/15 17:15:30;;;;;;;59.60;33.83;;;;;;;;;;6173680;28;20011;-76
2022/10/15 17:18:30;;;;;;;71.60;44.97;;;;;;;;;;6173101;28;20018;-75
2022/10/15 17:21:31;;;;;;;88.00;47.27;;;;;;;;;;6174845;28;20077;-75
2022/10/15 17:24:31;;;;;;;75.53;43.77;;;;;;;;;;6157714;28;20019;-75
2022/10/15 17:27:32;;;;;;;62.63;36.73;;;;;;;;;;6171824;28;20042;-75
2022/10/15 17:30:33;;;;;;;67.40;42.63;;;;;;;;;;6157278;28;20026;-75
2022/10/15 17:33:35;;;;;;;82.95;46.42;;;;;;;;;;6179710;28;20023;-76
2022/10/15 17:36:36;;;;;;;91.95;47.30;;;;;;;;;;6159622;28;20030;-76
2022/10/15 17:39:36;;;;;;;74.50;41.55;;;;;;;;;;6174479;28;20102;-75
2022/10/15 17:42:41;;;;;;;79.38;44.90;;;;;;;;;;6158555;28;20015;-76
2022/10/15 17:45:41;;;;;;;60.45;34.75;;;;;;;;;;6177707;28;20031;-75
2022/10/15 17:48:42;;;;;;;64.90;36.95;;;;;;;;;;6174748;28;20498;-75